Flight Track Log - Related Links

Times and Time Zones

All times are in EDT time to prevent confusion due to time zone crossing. See the SWA1969 flight status page for this flight to view local times or setup timezone preferences in your user account.

Time Position Orientation Groundspeed Altitude Reporting Facility
EDT Latitude Longitude Course Direction KTS MPH feet Rate Location/Type
Wed 11:14:22 AM 39.3167 -94.7000 38° Northeast 169 194 2,000  Level Kansas City TRACON
Wed 11:15:53 AM 39.3833 -94.6333 38° Northeast 238 274 5,600 2,333 Climbing Kansas City TRACON
Wed 11:16:10 AM 39.3842 -94.6286 77° East 227 261 6,200 3,154 Climbing Kansas City Center
Wed 11:17:11 AM 39.4417 -94.5533 45° Northeast 264 304 9,700 3,049 Climbing Kansas City Center
Wed 11:18:12 AM 39.5003 -94.4775 45° Northeast 310 357 12,400 2,880 Climbing Kansas City Center
Wed 11:19:16 AM 39.5642 -94.3947 45° Northeast 335 386 15,700 2,880 Climbing Kansas City Center
Wed 11:20:17 AM 39.6428 -94.2886 46° Northeast 366 421 18,400 2,607 Climbing Kansas City Center
Wed 11:21:18 AM 39.7144 -94.1931 46° Northeast 383 441 21,000 2,537 Climbing Kansas City Center
Wed 11:22:20 AM 39.8014 -94.0750 46° Northeast 404 465 23,600 2,274 Climbing Kansas City Center
Wed 11:23:22 AM 39.8789 -93.9581 49° Northeast 426 490 25,700 1,952 Climbing Kansas City Center
Wed 11:24:26 AM 39.9606 -93.8406 48° Northeast 438 504 27,700 1,571 Climbing Kansas City Center
Wed 11:25:28 AM 40.0433 -93.7208 48° Northeast 446 513 29,000 639 Climbing Kansas City Center
Wed 11:26:28 AM 40.1064 -93.5794 60° Northeast 465 535 29,000  Level Kansas City Center
Wed 11:27:32 AM 40.1392 -93.3853 77° East 462 532 29,000  Level Kansas City Center
Wed 11:28:34 AM 40.1661 -93.2206 78° East 465 535 29,000 488 Level Kansas City Center
Wed 11:30:24 AM 40.2158 -92.9242 78° East 464 534 30,400 942 Climbing Chicago Center
Wed 11:31:26 AM 40.2439 -92.7525 78° East 486 559 31,700 1,403 Climbing Chicago Center
Wed 11:31:41 AM 40.2531 -92.7017 77° East 491 565 32,200 1,040 Climbing Kansas City Center
Wed 11:32:41 AM 40.2958 -92.5417 71° East 487 560 33,000 393 Climbing Kansas City Center
Wed 11:33:43 AM 40.3611 -92.3514 66° East 489 563 33,000  Level Kansas City Center
Wed 11:34:46 AM 40.4119 -92.1806 69° East 486 559 33,000  Level Kansas City Center
Wed 11:35:46 AM 40.4608 -92.0183 68° East 483 556 33,000  Level Kansas City Center
Wed 11:36:50 AM 40.5094 -91.8544 69° East 483 556 33,000  Level Kansas City Center
Wed 11:37:51 AM 40.5572 -91.6911 69° East 483 556 33,000  Level Kansas City Center
Wed 11:38:39 AM 40.5983 -91.5597 68° East 486 559 33,000  Level Chicago Center
Wed 11:39:41 AM 40.6383 -91.3917 73° East 485 558 33,000 -97 Level Chicago Center
Wed 11:40:43 AM 40.6825 -91.1839 74° East 490 564 32,800 -581 Descending Chicago Center
Wed 11:41:45 AM 40.7206 -91.0111 74° East 492 566 31,800 -968 Descending Chicago Center
Wed 11:42:47 AM 40.7561 -90.8386 75° East 487 560 30,800 -871 Descending Chicago Center
Wed 11:43:49 AM 40.7931 -90.6647 74° East 491 565 30,000 -1,161 Descending Chicago Center
Wed 11:44:51 AM 40.8311 -90.4811 75° East 513 590 28,400 -2,032 Descending Chicago Center
Wed 11:45:53 AM 40.8697 -90.3022 74° East 504 580 25,800 -2,129 Descending Chicago Center
Wed 11:46:55 AM 40.9006 -90.1094 78° East 471 542 24,000 -1,887 Descending Chicago Center
Wed 11:47:57 AM 40.8919 -89.9439 94° East 456 525 21,900 -2,323 Descending Chicago Center
Wed 11:48:59 AM 40.8856 -89.7797 93° East 450 518 19,200 -2,468 Descending Chicago Center
Wed 11:50:01 AM 40.9203 -89.6303 73° East 432 497 16,800 -1,984 Descending Chicago Center
Wed 11:51:03 AM 40.9661 -89.4681 69° East 417 480 15,100 -823 Descending Chicago Center
Wed 11:52:05 AM 41.0008 -89.3408 70° East 378 435 15,100  Level Chicago Center
Wed 11:53:07 AM 41.0328 -89.2233 70° East 343 395 15,100 -435 Level Chicago Center
Wed 11:54:09 AM 41.0664 -89.1067 69° East 330 380 14,200 -871 Descending Chicago Center
Wed 11:55:11 AM 41.0958 -88.9964 70° East 323 372 13,300 -919 Descending Chicago Center
Wed 11:56:13 AM 41.1236 -88.8894 71° East 312 359 12,300 -1,065 Descending Chicago Center
Wed 11:57:15 AM 41.1578 -88.7675 70° East 299 344 11,100 -677 Descending Chicago Center
Wed 11:58:17 AM 41.1842 -88.6675 71° East 294 338 10,900 -484 Descending Chicago Center
Wed 11:59:19 AM 41.2108 -88.5672 71° East 291 335 10,100 -435 Descending Chicago Center
Wed 12:00:21 PM 41.2533 -88.4856 55° Northeast 282 325 10,000 -629 Descending Chicago Center
Wed 12:01:23 PM 41.3228 -88.4444 24° Northeast 276 318 8,800 -1,355 Descending Chicago Center
Wed 12:02:25 PM 41.3914 -88.4069 22° Northeast 270 311 7,200 -1,355 Descending Chicago Center
Wed 12:03:27 PM 41.4706 -88.3619 23° Northeast 263 303 6,000 -1,065 Descending Chicago Center
Wed 12:04:29 PM 41.5061 -88.2839 59° Northeast 272 313 5,000 -484 Descending Chicago Center
Wed 12:05:31 PM 41.5178 -88.1861 81° East 267 307 5,000  Level Chicago Center
Wed 12:06:33 PM 41.5283 -88.0875 82° East 266 306 5,000  Level Chicago Center
Wed 12:07:35 PM 41.5419 -87.9889 80° East 266 306 5,000  Level Chicago Center
Wed 12:08:37 PM 41.5550 -87.8908 80° East 266 306 5,000  Level Chicago Center
Wed 12:09:39 PM 41.5567 -87.8000 89° East 254 292 5,000  Level Chicago Center
Wed 12:11:48 PM 41.5500 -87.6000 92° East 234 269 5,000  Level Chicago TRACON
Wed 12:12:43 PM 41.5500 -87.5333 90° East 236 272 5,000 -470 Level Chicago TRACON
Wed 12:13:43 PM 41.6000 -87.5000 26° Northeast 216 249 4,100 -800 Descending Chicago TRACON
Wed 12:14:43 PM 41.6333 -87.5333 323° Northwest 165 190 3,400 -550 Descending Chicago TRACON
Wed 12:15:43 PM 41.6667 -87.5833 312° West 162 186 3,000 -450 Descending Chicago TRACON
Wed 12:16:43 PM 41.7000 -87.6167 323° Northwest 160 184 2,500 -361 Descending Chicago TRACON
Wed 12:17:56 PM 41.7289 -87.6742 304° West 162 186 2,200 -476 Descending Chicago Center
Wed 12:18:49 PM 41.7500 -87.7000 318° Northwest 126 145 1,500 -792 Descending Chicago TRACON

Login

Don't have an account? Register now (free) for customized features, flight alerts, and more!